sensor_id;sensor_type;location;lat;lon;timestamp;P1;durP1;ratioP1;P2;durP2;ratioP2
15383;SDS011;7790;53.022;12.968;2022-10-18T00:01:45;1.70;;;1.60;;
15383;SDS011;7790;53.022;12.968;2022-10-18T00:05:47;2.90;;;1.73;;
15383;SDS011;7790;53.022;12.968;2022-10-18T00:09:48;2.33;;;1.80;;
15383;SDS011;7790;53.022;12.968;2022-10-18T00:13:49;1.70;;;1.60;;
15383;SDS011;7790;53.022;12.968;2022-10-18T00:17:50;1.80;;;1.70;;
15383;SDS011;7790;53.022;12.968;2022-10-18T00:21:51;1.80;;;1.57;;
15383;SDS011;7790;53.022;12.968;2022-10-18T00:25:58;4.10;;;1.97;;
15383;SDS011;7790;53.022;12.968;2022-10-18T00:30:01;1.70;;;1.60;;
15383;SDS011;7790;53.022;12.968;2022-10-18T00:34:03;2.10;;;1.87;;
15383;SDS011;7790;53.022;12.968;2022-10-18T00:38:09;1.80;;;1.70;;
15383;SDS011;7790;53.022;12.968;2022-10-18T00:42:18;1.97;;;1.67;;
15383;SDS011;7790;53.022;12.968;2022-10-18T00:46:21;1.97;;;1.87;;
15383;SDS011;7790;53.022;12.968;2022-10-18T00:50:23;2.03;;;1.80;;
15383;SDS011;7790;53.022;12.968;2022-10-18T00:54:27;1.77;;;1.60;;
15383;SDS011;7790;53.022;12.968;2022-10-18T00:58:30;1.43;;;1.33;;
15383;SDS011;7790;53.022;12.968;2022-10-18T01:02:31;2.60;;;1.60;;
15383;SDS011;7790;53.022;12.968;2022-10-18T01:06:32;1.80;;;1.70;;
15383;SDS011;7790;53.022;12.968;2022-10-18T01:32:53;3.87;;;1.70;;
15383;SDS011;7790;53.022;12.968;2022-10-18T01:37:02;1.90;;;1.80;;
15383;SDS011;7790;53.022;12.968;2022-10-18T01:41:05;2.87;;;1.63;;
15383;SDS011;7790;53.022;12.968;2022-10-18T01:45:09;2.20;;;2.00;;
15383;SDS011;7790;53.022;12.968;2022-10-18T01:49:14;2.70;;;1.40;;
15383;SDS011;7790;53.022;12.968;2022-10-18T01:53:21;1.53;;;1.40;;
15383;SDS011;7790;53.022;12.968;2022-10-18T01:57:27;2.00;;;1.57;;
15383;SDS011;7790;53.022;12.968;2022-10-18T02:10:45;1.80;;;1.70;;
15383;SDS011;7790;53.022;12.968;2022-10-18T02:14:48;1.50;;;1.33;;
15383;SDS011;7790;53.022;12.968;2022-10-18T02:18:54;1.50;;;1.40;;
15383;SDS011;7790;53.022;12.968;2022-10-18T02:22:57;1.50;;;1.40;;
15383;SDS011;7790;53.022;12.968;2022-10-18T02:27:00;1.60;;;1.50;;
15383;SDS011;7790;53.022;12.968;2022-10-18T02:31:18;1.80;;;1.70;;
15383;SDS011;7790;53.022;12.968;2022-10-18T02:35:28;1.70;;;1.60;;
15383;SDS011;7790;53.022;12.968;2022-10-18T02:39:35;1.50;;;1.40;;
15383;SDS011;7790;53.022;12.968;2022-10-18T02:43:42;1.50;;;1.40;;
15383;SDS011;7790;53.022;12.968;2022-10-18T02:47:43;2.30;;;1.60;;
15383;SDS011;7790;53.022;12.968;2022-10-18T02:51:44;1.60;;;1.50;;
15383;SDS011;7790;53.022;12.968;2022-10-18T02:55:45;1.67;;;1.57;;
15383;SDS011;7790;53.022;12.968;2022-10-18T02:59:46;1.40;;;1.40;;
15383;SDS011;7790;53.022;12.968;2022-10-18T03:03:47;1.40;;;1.30;;
15383;SDS011;7790;53.022;12.968;2022-10-18T03:07:48;1.60;;;1.50;;
15383;SDS011;7790;53.022;12.968;2022-10-18T03:11:49;1.30;;;1.30;;
15383;SDS011;7790;53.022;12.968;2022-10-18T03:15:53;1.53;;;1.43;;
15383;SDS011;7790;53.022;12.968;2022-10-18T03:19:54;3.63;;;1.50;;
15383;SDS011;7790;53.022;12.968;2022-10-18T03:23:55;2.27;;;1.50;;
15383;SDS011;7790;53.022;12.968;2022-10-18T03:27:57;5.37;;;1.80;;
15383;SDS011;7790;53.022;12.968;2022-10-18T03:31:58;4.67;;;1.90;;
15383;SDS011;7790;53.022;12.968;2022-10-18T03:35:59;4.10;;;1.90;;
15383;SDS011;7790;53.022;12.968;2022-10-18T03:40:00;2.63;;;1.83;;
15383;SDS011;7790;53.022;12.968;2022-10-18T03:44:02;2.70;;;1.70;;
15383;SDS011;7790;53.022;12.968;2022-10-18T03:48:03;3.33;;;2.00;;
15383;SDS011;7790;53.022;12.968;2022-10-18T03:52:04;2.97;;;1.80;;
15383;SDS011;7790;53.022;12.968;2022-10-18T03:56:05;2.77;;;1.80;;
15383;SDS011;7790;53.022;12.968;2022-10-18T04:00:06;2.13;;;1.50;;
15383;SDS011;7790;53.022;12.968;2022-10-18T04:04:12;2.10;;;1.40;;
15383;SDS011;7790;53.022;12.968;2022-10-18T04:08:13;3.43;;;1.47;;
15383;SDS011;7790;53.022;12.968;2022-10-18T04:12:15;3.53;;;1.83;;
15383;SDS011;7790;53.022;12.968;2022-10-18T04:16:16;2.27;;;1.70;;
15383;SDS011;7790;53.022;12.968;2022-10-18T04:20:17;1.77;;;1.50;;
15383;SDS011;7790;53.022;12.968;2022-10-18T04:24:18;2.30;;;1.83;;
15383;SDS011;7790;53.022;12.968;2022-10-18T04:28:19;2.03;;;1.60;;
15383;SDS011;7790;53.022;12.968;2022-10-18T04:32:19;1.90;;;1.80;;
15383;SDS011;7790;53.022;12.968;2022-10-18T04:36:20;2.90;;;1.70;;
15383;SDS011;7790;53.022;12.968;2022-10-18T04:40:21;1.53;;;1.43;;
15383;SDS011;7790;53.022;12.968;2022-10-18T04:44:22;1.70;;;1.60;;
15383;SDS011;7790;53.022;12.968;2022-10-18T04:48:23;1.50;;;1.40;;
15383;SDS011;7790;53.022;12.968;2022-10-18T04:52:23;1.50;;;1.40;;
15383;SDS011;7790;53.022;12.968;2022-10-18T04:56:24;2.03;;;1.80;;
15383;SDS011;7790;53.022;12.968;2022-10-18T05:00:25;1.87;;;1.70;;
15383;SDS011;7790;53.022;12.968;2022-10-18T05:04:27;1.70;;;1.60;;
15383;SDS011;7790;53.022;12.968;2022-10-18T05:08:28;3.20;;;1.90;;
15383;SDS011;7790;53.022;12.968;2022-10-18T05:12:29;1.70;;;1.60;;
15383;SDS011;7790;53.022;12.968;2022-10-18T05:16:30;1.97;;;1.87;;
15383;SDS011;7790;53.022;12.968;2022-10-18T05:20:32;1.70;;;1.60;;
15383;SDS011;7790;53.022;12.968;2022-10-18T05:24:33;1.80;;;1.63;;
15383;SDS011;7790;53.022;12.968;2022-10-18T05:28:34;2.80;;;1.60;;
15383;SDS011;7790;53.022;12.968;2022-10-18T05:32:36;2.13;;;1.77;;
15383;SDS011;7790;53.022;12.968;2022-10-18T05:36:37;1.70;;;1.60;;
15383;SDS011;7790;53.022;12.968;2022-10-18T05:40:38;3.90;;;1.70;;
15383;SDS011;7790;53.022;12.968;2022-10-18T05:44:39;4.37;;;2.33;;
15383;SDS011;7790;53.022;12.968;2022-10-18T05:48:40;10.70;;;3.70;;
15383;SDS011;7790;53.022;12.968;2022-10-18T05:52:41;7.03;;;3.27;;
15383;SDS011;7790;53.022;12.968;2022-10-18T05:56:42;5.53;;;3.40;;
15383;SDS011;7790;53.022;12.968;2022-10-18T06:00:43;5.70;;;3.20;;
15383;SDS011;7790;53.022;12.968;2022-10-18T06:04:44;4.20;;;3.00;;
15383;SDS011;7790;53.022;12.968;2022-10-18T06:08:47;5.00;;;2.90;;
15383;SDS011;7790;53.022;12.968;2022-10-18T06:12:48;4.87;;;3.20;;
15383;SDS011;7790;53.022;12.968;2022-10-18T06:16:49;4.30;;;3.30;;
15383;SDS011;7790;53.022;12.968;2022-10-18T06:20:56;3.03;;;2.80;;
15383;SDS011;7790;53.022;12.968;2022-10-18T06:24:58;4.70;;;2.77;;
15383;SDS011;7790;53.022;12.968;2022-10-18T06:28:59;2.43;;;2.23;;
15383;SDS011;7790;53.022;12.968;2022-10-18T06:33:01;3.53;;;2.60;;
15383;SDS011;7790;53.022;12.968;2022-10-18T06:37:02;4.20;;;3.80;;
15383;SDS011;7790;53.022;12.968;2022-10-18T06:41:03;8.53;;;3.57;;
15383;SDS011;7790;53.022;12.968;2022-10-18T06:45:05;6.57;;;4.23;;
15383;SDS011;7790;53.022;12.968;2022-10-18T06:49:07;12.37;;;11.10;;
15383;SDS011;7790;53.022;12.968;2022-10-18T06:53:07;13.60;;;10.50;;
15383;SDS011;7790;53.022;12.968;2022-10-18T06:57:08;16.43;;;9.43;;
15383;SDS011;7790;53.022;12.968;2022-10-18T07:01:13;9.73;;;8.57;;
15383;SDS011;7790;53.022;12.968;2022-10-18T07:05:16;8.63;;;7.73;;
15383;SDS011;7790;53.022;12.968;2022-10-18T07:09:16;8.90;;;7.83;;
15383;SDS011;7790;53.022;12.968;2022-10-18T07:13:18;7.80;;;6.97;;
15383;SDS011;7790;53.022;12.968;2022-10-18T07:17:19;8.13;;;6.73;;
15383;SDS011;7790;53.022;12.968;2022-10-18T07:21:21;8.20;;;6.20;;
15383;SDS011;7790;53.022;12.968;2022-10-18T07:25:24;6.70;;;5.57;;
15383;SDS011;7790;53.022;12.968;2022-10-18T07:29:25;7.63;;;5.77;;
15383;SDS011;7790;53.022;12.968;2022-10-18T07:33:27;6.47;;;5.60;;
15383;SDS011;7790;53.022;12.968;2022-10-18T07:37:29;6.47;;;5.30;;
15383;SDS011;7790;53.022;12.968;2022-10-18T07:41:29;5.77;;;5.17;;
15383;SDS011;7790;53.022;12.968;2022-10-18T07:45:32;5.50;;;4.90;;
15383;SDS011;7790;53.022;12.968;2022-10-18T07:49:33;5.43;;;4.53;;
15383;SDS011;7790;53.022;12.968;2022-10-18T07:53:34;5.13;;;4.60;;
15383;SDS011;7790;53.022;12.968;2022-10-18T07:57:36;4.50;;;4.10;;
15383;SDS011;7790;53.022;12.968;2022-10-18T08:01:36;4.43;;;4.03;;
15383;SDS011;7790;53.022;12.968;2022-10-18T08:05:37;5.47;;;4.57;;
15383;SDS011;7790;53.022;12.968;2022-10-18T08:09:38;3.93;;;3.37;;
15383;SDS011;7790;53.022;12.968;2022-10-18T08:13:39;6.43;;;4.00;;
15383;SDS011;7790;53.022;12.968;2022-10-18T08:17:40;4.10;;;3.70;;
15383;SDS011;7790;53.022;12.968;2022-10-18T08:21:42;3.63;;;3.33;;
15383;SDS011;7790;53.022;12.968;2022-10-18T08:25:43;3.93;;;3.53;;
15383;SDS011;7790;53.022;12.968;2022-10-18T08:29:44;3.87;;;3.50;;
15383;SDS011;7790;53.022;12.968;2022-10-18T08:33:45;3.90;;;3.50;;
15383;SDS011;7790;53.022;12.968;2022-10-18T08:37:46;3.43;;;3.10;;
15383;SDS011;7790;53.022;12.968;2022-10-18T08:41:59;3.73;;;2.90;;
15383;SDS011;7790;53.022;12.968;2022-10-18T08:46:15;3.80;;;3.50;;
15383;SDS011;7790;53.022;12.968;2022-10-18T08:50:20;3.57;;;3.27;;
15383;SDS011;7790;53.022;12.968;2022-10-18T08:54:35;3.30;;;3.00;;
15383;SDS011;7790;53.022;12.968;2022-10-18T08:59:10;3.47;;;3.10;;
15383;SDS011;7790;53.022;12.968;2022-10-18T09:16:28;2.90;;;2.67;;
15383;SDS011;7790;53.022;12.968;2022-10-18T09:20:58;2.87;;;2.67;;
15383;SDS011;7790;53.022;12.968;2022-10-18T09:33:47;3.00;;;2.80;;
15383;SDS011;7790;53.022;12.968;2022-10-18T09:37:51;2.87;;;2.33;;
15383;SDS011;7790;53.022;12.968;2022-10-18T09:42:22;2.80;;;2.60;;
15383;SDS011;7790;53.022;12.968;2022-10-18T09:46:28;3.00;;;2.70;;
15383;SDS011;7790;53.022;12.968;2022-10-18T09:50:43;2.60;;;2.40;;
15383;SDS011;7790;53.022;12.968;2022-10-18T09:55:00;2.40;;;2.20;;
15383;SDS011;7790;53.022;12.968;2022-10-18T09:59:50;2.87;;;2.53;;
15383;SDS011;7790;53.022;12.968;2022-10-18T10:03:37;2.30;;;2.20;;
15383;SDS011;7790;53.022;12.968;2022-10-18T10:07:42;2.50;;;2.30;;
15383;SDS011;7790;53.022;12.968;2022-10-18T10:11:49;2.50;;;2.30;;
15383;SDS011;7790;53.022;12.968;2022-10-18T10:15:55;5.00;;;2.30;;
15383;SDS011;7790;53.022;12.968;2022-10-18T10:24:03;2.63;;;2.43;;
15383;SDS011;7790;53.022;12.968;2022-10-18T10:28:14;4.27;;;2.50;;
15383;SDS011;7790;53.022;12.968;2022-10-18T10:32:19;6.30;;;2.47;;
15383;SDS011;7790;53.022;12.968;2022-10-18T10:36:22;4.40;;;2.50;;
15383;SDS011;7790;53.022;12.968;2022-10-18T10:44:28;2.20;;;2.10;;
15383;SDS011;7790;53.022;12.968;2022-10-18T10:48:32;2.50;;;2.30;;
15383;SDS011;7790;53.022;12.968;2022-10-18T10:52:41;3.43;;;2.63;;
15383;SDS011;7790;53.022;12.968;2022-10-18T10:56:57;3.57;;;2.20;;
15383;SDS011;7790;53.022;12.968;2022-10-18T11:05:21;3.30;;;2.33;;
15383;SDS011;7790;53.022;12.968;2022-10-18T11:09:33;2.00;;;1.90;;
15383;SDS011;7790;53.022;12.968;2022-10-18T11:13:49;2.83;;;2.17;;
15383;SDS011;7790;53.022;12.968;2022-10-18T11:22:17;3.23;;;2.23;;
15383;SDS011;7790;53.022;12.968;2022-10-18T11:31:19;6.47;;;2.10;;
15383;SDS011;7790;53.022;12.968;2022-10-18T11:40:28;2.17;;;1.90;;
15383;SDS011;7790;53.022;12.968;2022-10-18T11:45:17;3.47;;;2.00;;
15383;SDS011;7790;53.022;12.968;2022-10-18T11:54:35;2.47;;;1.80;;
15383;SDS011;7790;53.022;12.968;2022-10-18T12:06:42;3.97;;;2.10;;
15383;SDS011;7790;53.022;12.968;2022-10-18T12:10:52;5.03;;;2.30;;
15383;SDS011;7790;53.022;12.968;2022-10-18T12:15:12;3.57;;;2.13;;
15383;SDS011;7790;53.022;12.968;2022-10-18T12:19:27;7.47;;;2.20;;
15383;SDS011;7790;53.022;12.968;2022-10-18T12:23:43;3.23;;;2.10;;
15383;SDS011;7790;53.022;12.968;2022-10-18T12:32:10;5.10;;;2.10;;
15383;SDS011;7790;53.022;12.968;2022-10-18T12:40:44;2.87;;;2.30;;
15383;SDS011;7790;53.022;12.968;2022-10-18T12:44:48;5.43;;;1.90;;
15383;SDS011;7790;53.022;12.968;2022-10-18T12:49:02;4.20;;;2.03;;
15383;SDS011;7790;53.022;12.968;2022-10-18T12:53:06;2.60;;;1.90;;
15383;SDS011;7790;53.022;12.968;2022-10-18T12:57:17;5.67;;;3.10;;
15383;SDS011;7790;53.022;12.968;2022-10-18T13:01:22;9.97;;;3.37;;
15383;SDS011;7790;53.022;12.968;2022-10-18T13:14:18;9.43;;;3.90;;
15383;SDS011;7790;53.022;12.968;2022-10-18T13:18:58;5.67;;;3.20;;
15383;SDS011;7790;53.022;12.968;2022-10-18T13:27:30;8.77;;;3.60;;
15383;SDS011;7790;53.022;12.968;2022-10-18T13:31:59;5.63;;;2.90;;
15383;SDS011;7790;53.022;12.968;2022-10-18T13:40:21;6.60;;;2.70;;
15383;SDS011;7790;53.022;12.968;2022-10-18T13:44:37;6.03;;;2.70;;
15383;SDS011;7790;53.022;12.968;2022-10-18T14:09:55;5.40;;;2.40;;
15383;SDS011;7790;53.022;12.968;2022-10-18T14:14:11;6.93;;;2.30;;
15383;SDS011;7790;53.022;12.968;2022-10-18T14:18:46;4.17;;;2.17;;
15383;SDS011;7790;53.022;12.968;2022-10-18T14:22:42;3.63;;;2.20;;
15383;SDS011;7790;53.022;12.968;2022-10-18T14:27:10;3.30;;;1.70;;
15383;SDS011;7790;53.022;12.968;2022-10-18T14:31:16;2.30;;;1.77;;
15383;SDS011;7790;53.022;12.968;2022-10-18T14:39:23;2.63;;;1.83;;
15383;SDS011;7790;53.022;12.968;2022-10-18T14:43:28;5.23;;;2.17;;
15383;SDS011;7790;53.022;12.968;2022-10-18T14:47:29;3.40;;;1.70;;
15383;SDS011;7790;53.022;12.968;2022-10-18T14:51:33;4.67;;;1.70;;
15383;SDS011;7790;53.022;12.968;2022-10-18T14:55:35;3.27;;;1.47;;
15383;SDS011;7790;53.022;12.968;2022-10-18T14:59:40;4.57;;;2.00;;
15383;SDS011;7790;53.022;12.968;2022-10-18T15:03:54;1.93;;;1.63;;
15383;SDS011;7790;53.022;12.968;2022-10-18T15:07:57;2.37;;;1.57;;
15383;SDS011;7790;53.022;12.968;2022-10-18T15:11:59;2.57;;;1.90;;
15383;SDS011;7790;53.022;12.968;2022-10-18T15:16:05;4.93;;;1.70;;
15383;SDS011;7790;53.022;12.968;2022-10-18T15:24:33;1.70;;;1.60;;
15383;SDS011;7790;53.022;12.968;2022-10-18T15:32:45;2.37;;;1.70;;
15383;SDS011;7790;53.022;12.968;2022-10-18T15:36:56;2.73;;;1.70;;
15383;SDS011;7790;53.022;12.968;2022-10-18T15:40:57;6.50;;;1.50;;
15383;SDS011;7790;53.022;12.968;2022-10-18T15:44:58;1.60;;;1.40;;
15383;SDS011;7790;53.022;12.968;2022-10-18T15:49:22;4.27;;;1.67;;
15383;SDS011;7790;53.022;12.968;2022-10-18T15:53:33;4.37;;;3.40;;
15383;SDS011;7790;53.022;12.968;2022-10-18T15:57:49;6.47;;;3.20;;
15383;SDS011;7790;53.022;12.968;2022-10-18T16:01:50;12.20;;;4.20;;
15383;SDS011;7790;53.022;12.968;2022-10-18T16:05:52;5.40;;;3.47;;
15383;SDS011;7790;53.022;12.968;2022-10-18T16:09:57;6.80;;;3.57;;
15383;SDS011;7790;53.022;12.968;2022-10-18T16:13:58;5.80;;;3.57;;
15383;SDS011;7790;53.022;12.968;2022-10-18T16:17:59;3.57;;;3.17;;
15383;SDS011;7790;53.022;12.968;2022-10-18T16:22:00;9.03;;;3.60;;
15383;SDS011;7790;53.022;12.968;2022-10-18T16:26:01;4.20;;;3.13;;
15383;SDS011;7790;53.022;12.968;2022-10-18T16:30:07;7.80;;;2.73;;
15383;SDS011;7790;53.022;12.968;2022-10-18T16:34:12;5.93;;;2.90;;
15383;SDS011;7790;53.022;12.968;2022-10-18T16:38:18;4.17;;;2.83;;
15383;SDS011;7790;53.022;12.968;2022-10-18T16:42:29;3.73;;;2.70;;
15383;SDS011;7790;53.022;12.968;2022-10-18T16:46:30;4.47;;;2.70;;
15383;SDS011;7790;53.022;12.968;2022-10-18T16:50:33;4.07;;;2.60;;
15383;SDS011;7790;53.022;12.968;2022-10-18T16:54:34;2.60;;;2.40;;
15383;SDS011;7790;53.022;12.968;2022-10-18T16:58:35;2.80;;;2.33;;
15383;SDS011;7790;53.022;12.968;2022-10-18T17:02:35;2.77;;;2.10;;
15383;SDS011;7790;53.022;12.968;2022-10-18T17:06:36;4.10;;;2.17;;
15383;SDS011;7790;53.022;12.968;2022-10-18T17:10:37;7.93;;;2.50;;
15383;SDS011;7790;53.022;12.968;2022-10-18T17:14:38;2.50;;;2.30;;
15383;SDS011;7790;53.022;12.968;2022-10-18T17:18:39;3.80;;;2.50;;
15383;SDS011;7790;53.022;12.968;2022-10-18T17:22:39;3.27;;;2.10;;
15383;SDS011;7790;53.022;12.968;2022-10-18T17:26:40;2.60;;;2.30;;
15383;SDS011;7790;53.022;12.968;2022-10-18T17:30:42;3.20;;;2.20;;
15383;SDS011;7790;53.022;12.968;2022-10-18T17:34:43;2.73;;;2.40;;
15383;SDS011;7790;53.022;12.968;2022-10-18T17:38:44;3.20;;;2.40;;
15383;SDS011;7790;53.022;12.968;2022-10-18T17:42:47;2.30;;;2.10;;
15383;SDS011;7790;53.022;12.968;2022-10-18T17:46:48;2.07;;;1.87;;
15383;SDS011;7790;53.022;12.968;2022-10-18T17:50:49;3.97;;;2.07;;
15383;SDS011;7790;53.022;12.968;2022-10-18T17:54:50;3.53;;;2.10;;
15383;SDS011;7790;53.022;12.968;2022-10-18T17:58:51;8.40;;;2.60;;
15383;SDS011;7790;53.022;12.968;2022-10-18T18:02:52;6.80;;;2.50;;
15383;SDS011;7790;53.022;12.968;2022-10-18T18:06:56;9.13;;;2.77;;
15383;SDS011;7790;53.022;12.968;2022-10-18T18:10:58;6.57;;;3.07;;
15383;SDS011;7790;53.022;12.968;2022-10-18T18:14:59;6.30;;;5.00;;
15383;SDS011;7790;53.022;12.968;2022-10-18T18:19:00;8.20;;;4.00;;
15383;SDS011;7790;53.022;12.968;2022-10-18T18:23:02;7.13;;;3.40;;
15383;SDS011;7790;53.022;12.968;2022-10-18T18:27:03;6.37;;;3.47;;
15383;SDS011;7790;53.022;12.968;2022-10-18T18:31:04;5.60;;;3.30;;
15383;SDS011;7790;53.022;12.968;2022-10-18T18:35:10;5.20;;;2.80;;
15383;SDS011;7790;53.022;12.968;2022-10-18T18:39:21;4.73;;;2.80;;
15383;SDS011;7790;53.022;12.968;2022-10-18T18:43:25;3.50;;;2.50;;
15383;SDS011;7790;53.022;12.968;2022-10-18T18:47:26;4.47;;;2.60;;
15383;SDS011;7790;53.022;12.968;2022-10-18T18:51:27;6.30;;;2.70;;
15383;SDS011;7790;53.022;12.968;2022-10-18T18:55:30;4.83;;;2.70;;
15383;SDS011;7790;53.022;12.968;2022-10-18T18:59:31;4.33;;;2.70;;
15383;SDS011;7790;53.022;12.968;2022-10-18T19:03:32;3.97;;;2.17;;
15383;SDS011;7790;53.022;12.968;2022-10-18T19:07:33;4.60;;;2.43;;
15383;SDS011;7790;53.022;12.968;2022-10-18T19:11:36;4.20;;;2.57;;
15383;SDS011;7790;53.022;12.968;2022-10-18T19:15:39;6.33;;;2.40;;
15383;SDS011;7790;53.022;12.968;2022-10-18T19:19:40;4.63;;;2.10;;
15383;SDS011;7790;53.022;12.968;2022-10-18T19:23:42;3.27;;;2.10;;
15383;SDS011;7790;53.022;12.968;2022-10-18T19:27:43;5.33;;;2.20;;
15383;SDS011;7790;53.022;12.968;2022-10-18T19:31:44;3.47;;;2.10;;
15383;SDS011;7790;53.022;12.968;2022-10-18T19:35:45;2.23;;;1.90;;
15383;SDS011;7790;53.022;12.968;2022-10-18T19:39:46;2.90;;;2.20;;
15383;SDS011;7790;53.022;12.968;2022-10-18T19:43:46;5.53;;;2.13;;
15383;SDS011;7790;53.022;12.968;2022-10-18T19:47:47;3.17;;;1.87;;
15383;SDS011;7790;53.022;12.968;2022-10-18T19:51:48;2.17;;;1.90;;
15383;SDS011;7790;53.022;12.968;2022-10-18T19:55:55;2.73;;;1.93;;
15383;SDS011;7790;53.022;12.968;2022-10-18T19:59:57;2.77;;;1.70;;
15383;SDS011;7790;53.022;12.968;2022-10-18T20:03:58;3.27;;;1.60;;
15383;SDS011;7790;53.022;12.968;2022-10-18T20:07:59;2.27;;;1.70;;
15383;SDS011;7790;53.022;12.968;2022-10-18T20:12:00;2.23;;;1.60;;
15383;SDS011;7790;53.022;12.968;2022-10-18T20:16:01;2.00;;;1.60;;
15383;SDS011;7790;53.022;12.968;2022-10-18T20:20:03;2.50;;;1.60;;
15383;SDS011;7790;53.022;12.968;2022-10-18T20:24:04;2.80;;;1.40;;
15383;SDS011;7790;53.022;12.968;2022-10-18T20:28:06;2.07;;;1.50;;
15383;SDS011;7790;53.022;12.968;2022-10-18T20:32:06;2.53;;;1.57;;
15383;SDS011;7790;53.022;12.968;2022-10-18T20:36:08;2.43;;;1.50;;
15383;SDS011;7790;53.022;12.968;2022-10-18T20:40:18;2.47;;;1.60;;
15383;SDS011;7790;53.022;12.968;2022-10-18T20:44:19;1.43;;;1.30;;
15383;SDS011;7790;53.022;12.968;2022-10-18T20:48:22;2.17;;;1.67;;
15383;SDS011;7790;53.022;12.968;2022-10-18T20:52:23;1.90;;;1.57;;
15383;SDS011;7790;53.022;12.968;2022-10-18T20:56:24;1.40;;;1.30;;
15383;SDS011;7790;53.022;12.968;2022-10-18T21:00:30;2.23;;;1.60;;
15383;SDS011;7790;53.022;12.968;2022-10-18T21:04:33;1.93;;;1.47;;
15383;SDS011;7790;53.022;12.968;2022-10-18T21:08:33;2.37;;;1.40;;
15383;SDS011;7790;53.022;12.968;2022-10-18T21:12:34;2.23;;;1.20;;
15383;SDS011;7790;53.022;12.968;2022-10-18T21:16:35;1.53;;;1.30;;
15383;SDS011;7790;53.022;12.968;2022-10-18T21:20:36;2.23;;;1.60;;
15383;SDS011;7790;53.022;12.968;2022-10-18T21:24:37;1.77;;;1.20;;
15383;SDS011;7790;53.022;12.968;2022-10-18T21:28:37;3.20;;;1.40;;
15383;SDS011;7790;53.022;12.968;2022-10-18T21:32:38;2.07;;;1.50;;
15383;SDS011;7790;53.022;12.968;2022-10-18T21:36:40;1.73;;;1.50;;
15383;SDS011;7790;53.022;12.968;2022-10-18T21:40:43;1.10;;;1.00;;
15383;SDS011;7790;53.022;12.968;2022-10-18T21:44:43;1.63;;;1.37;;
15383;SDS011;7790;53.022;12.968;2022-10-18T21:48:45;1.60;;;1.50;;
15383;SDS011;7790;53.022;12.968;2022-10-18T21:52:47;2.03;;;1.43;;
15383;SDS011;7790;53.022;12.968;2022-10-18T21:56:48;1.13;;;1.10;;
15383;SDS011;7790;53.022;12.968;2022-10-18T22:00:50;1.70;;;1.40;;
15383;SDS011;7790;53.022;12.968;2022-10-18T22:04:51;2.50;;;1.20;;
15383;SDS011;7790;53.022;12.968;2022-10-18T22:08:52;1.30;;;1.20;;
15383;SDS011;7790;53.022;12.968;2022-10-18T22:12:55;1.33;;;1.23;;
15383;SDS011;7790;53.022;12.968;2022-10-18T22:16:56;1.77;;;1.30;;
15383;SDS011;7790;53.022;12.968;2022-10-18T22:20:58;1.33;;;1.23;;
15383;SDS011;7790;53.022;12.968;2022-10-18T22:25:01;1.30;;;1.20;;
15383;SDS011;7790;53.022;12.968;2022-10-18T22:33:07;1.43;;;1.00;;
15383;SDS011;7790;53.022;12.968;2022-10-18T22:37:08;0.93;;;0.90;;
15383;SDS011;7790;53.022;12.968;2022-10-18T22:41:10;1.60;;;1.00;;
15383;SDS011;7790;53.022;12.968;2022-10-18T22:45:11;1.20;;;1.10;;
15383;SDS011;7790;53.022;12.968;2022-10-18T22:49:12;1.03;;;1.00;;
15383;SDS011;7790;53.022;12.968;2022-10-18T22:53:13;1.33;;;0.90;;
15383;SDS011;7790;53.022;12.968;2022-10-18T22:57:14;1.03;;;0.93;;
15383;SDS011;7790;53.022;12.968;2022-10-18T23:01:15;1.27;;;1.00;;
15383;SDS011;7790;53.022;12.968;2022-10-18T23:05:18;0.97;;;0.90;;
15383;SDS011;7790;53.022;12.968;2022-10-18T23:09:19;0.77;;;0.77;;
15383;SDS011;7790;53.022;12.968;2022-10-18T23:13:20;1.27;;;0.90;;
15383;SDS011;7790;53.022;12.968;2022-10-18T23:17:22;1.27;;;0.90;;
15383;SDS011;7790;53.022;12.968;2022-10-18T23:21:24;0.80;;;0.80;;
15383;SDS011;7790;53.022;12.968;2022-10-18T23:25:27;1.30;;;1.20;;
15383;SDS011;7790;53.022;12.968;2022-10-18T23:29:28;1.10;;;0.90;;
15383;SDS011;7790;53.022;12.968;2022-10-18T23:33:30;1.83;;;0.97;;
15383;SDS011;7790;53.022;12.968;2022-10-18T23:37:31;1.23;;;0.90;;
15383;SDS011;7790;53.022;12.968;2022-10-18T23:41:32;1.20;;;0.80;;
15383;SDS011;7790;53.022;12.968;2022-10-18T23:45:33;1.10;;;1.00;;
15383;SDS011;7790;53.022;12.968;2022-10-18T23:49:34;0.90;;;0.70;;
15383;SDS011;7790;53.022;12.968;2022-10-18T23:53:35;0.77;;;0.67;;
15383;SDS011;7790;53.022;12.968;2022-10-18T23:57:36;2.60;;;1.13;;
